createdAt,value
2022-11-05T00:01:18.352Z,15.45
2022-11-05T00:07:40.352Z,17.07
2022-11-05T00:14:00.731Z,14.85
2022-11-05T00:20:02.177Z,19.67
2022-11-05T00:26:06.680Z,15.10
2022-11-05T00:32:08.133Z,17.92
2022-11-05T00:38:09.583Z,13.90
2022-11-05T00:44:29.691Z,16.50
2022-11-05T00:50:31.197Z,16.37
2022-11-05T00:56:32.650Z,14.65
2022-11-05T01:02:34.343Z,14.63
2022-11-05T01:08:35.928Z,14.80
2022-11-05T01:14:37.440Z,14.10
2022-11-05T01:20:39.292Z,14.77
2022-11-05T01:26:40.740Z,15.60
2022-11-05T01:32:42.495Z,15.27
2022-11-05T01:38:44.273Z,19.67
2022-11-05T01:45:10.817Z,16.05
2022-11-05T01:51:14.104Z,17.30
2022-11-05T01:57:15.544Z,20.63
2022-11-05T02:03:18.889Z,16.33
2022-11-05T02:09:26.410Z,17.70
2022-11-05T02:15:35.677Z,17.02
2022-11-05T02:21:46.320Z,15.67
2022-11-05T02:28:13.560Z,21.58
2022-11-05T02:34:14.981Z,17.55
2022-11-05T02:40:22.323Z,17.97
2022-11-05T02:46:26.866Z,19.27
2022-11-05T02:52:32.668Z,20.90
2022-11-05T02:58:35.281Z,20.33
2022-11-05T03:04:36.762Z,17.95
2022-11-05T03:10:54.672Z,18.97
2022-11-05T03:17:19.526Z,18.70
2022-11-05T03:23:20.983Z,16.73
2022-11-05T03:29:25.074Z,16.55
2022-11-05T03:35:31.792Z,18.13
2022-11-05T03:41:34.306Z,15.33
2022-11-05T03:47:38.002Z,18.20
2022-11-05T03:53:51.806Z,15.57
2022-11-05T03:59:53.284Z,17.33
2022-11-05T04:06:14.470Z,14.60
2022-11-05T04:12:34.666Z,14.83
2022-11-05T04:18:39.180Z,14.82
2022-11-05T04:24:40.624Z,16.73
2022-11-05T04:30:44.200Z,13.85
2022-11-05T04:36:46.213Z,17.30
2022-11-05T04:42:47.710Z,16.67
2022-11-05T04:48:49.198Z,15.63
2022-11-05T04:54:50.730Z,16.03
2022-11-05T05:00:52.236Z,13.73
2022-11-05T05:06:53.800Z,14.73
2022-11-05T05:12:55.449Z,14.53
2022-11-05T05:18:56.922Z,16.55
2022-11-05T05:24:59.868Z,16.77
2022-11-05T05:31:01.810Z,14.23
2022-11-05T05:37:03.288Z,12.60
2022-11-05T05:43:04.738Z,12.17
2022-11-05T05:49:11.244Z,13.55
2022-11-05T05:55:13.896Z,17.30
2022-11-05T06:01:19.258Z,14.32
2022-11-05T06:07:21.290Z,14.88
2022-11-05T06:13:22.709Z,12.60
2022-11-05T06:19:24.197Z,14.27
2022-11-05T06:25:26.014Z,11.47
2022-11-05T06:31:27.530Z,12.32
2022-11-05T06:37:30.594Z,14.02
2022-11-05T06:43:32.039Z,16.80
2022-11-05T06:49:33.493Z,13.90
2022-11-05T06:55:34.946Z,11.50
2022-11-05T07:01:37.461Z,15.40
2022-11-05T07:07:39.814Z,13.15
2022-11-05T07:13:41.291Z,13.23
2022-11-05T07:19:42.720Z,15.02
2022-11-05T07:25:44.216Z,14.47
2022-11-05T07:31:46.942Z,18.40
2022-11-05T07:37:49.684Z,18.55
2022-11-05T07:43:51.118Z,17.83
2022-11-05T07:49:52.610Z,19.67
2022-11-05T07:55:54.177Z,22.60
2022-11-05T08:01:55.818Z,17.83
2022-11-05T08:07:57.788Z,19.38
2022-11-05T08:13:59.276Z,18.17
2022-11-05T08:20:00.709Z,16.88
2022-11-05T08:26:03.568Z,16.67
2022-11-05T08:32:05.110Z,17.38
2022-11-05T08:38:07.270Z,13.18
2022-11-05T08:44:08.782Z,16.93
2022-11-05T08:50:10.246Z,12.27
2022-11-05T08:56:11.761Z,15.07
2022-11-05T09:02:13.423Z,13.70
2022-11-05T09:08:16.418Z,15.68
2022-11-05T09:14:17.896Z,13.47
2022-11-05T09:20:19.478Z,10.30
2022-11-05T09:26:20.945Z,9.77
2022-11-05T09:32:23.171Z,11.10
2022-11-05T09:38:24.612Z,9.38
2022-11-05T09:44:32.039Z,9.73
2022-11-05T09:50:34.672Z,10.48
2022-11-05T09:56:38.706Z,10.20
2022-11-05T10:02:46.266Z,11.15
2022-11-05T10:08:51.542Z,11.07
2022-11-05T10:15:16.177Z,11.60
2022-11-05T10:21:32.347Z,12.27
2022-11-05T10:27:50.050Z,11.07
2022-11-05T10:33:53.445Z,10.88
2022-11-05T10:39:56.638Z,9.07
2022-11-05T10:45:58.092Z,9.90
2022-11-05T10:52:03.744Z,10.32
2022-11-05T10:58:10.190Z,8.40
2022-11-05T11:04:22.129Z,8.20
2022-11-05T11:10:24.408Z,7.00
2022-11-05T11:16:27.481Z,10.00
2022-11-05T11:22:29.286Z,6.72
2022-11-05T11:28:39.595Z,7.50
2022-11-05T11:34:42.575Z,8.20
2022-11-05T11:40:44.436Z,6.55
2022-11-05T11:46:46.893Z,7.90
2022-11-05T11:52:48.339Z,7.65
2022-11-05T11:58:54.147Z,8.07
2022-11-05T12:05:23.007Z,9.43
2022-11-05T12:11:31.324Z,5.50
2022-11-05T12:17:41.962Z,4.47
2022-11-05T12:24:01.996Z,6.68
2022-11-05T12:30:08.032Z,7.33
2022-11-05T12:36:14.491Z,8.20
2022-11-05T12:42:37.067Z,5.97
2022-11-05T12:48:57.242Z,6.93
2022-11-05T12:55:08.876Z,8.95
2022-11-05T13:01:16.952Z,5.60
2022-11-05T13:07:29.980Z,8.68
2022-11-05T13:13:34.530Z,7.80
2022-11-05T13:19:38.317Z,5.90
2022-11-05T13:25:45.037Z,6.80
2022-11-05T13:31:53.298Z,7.20
2022-11-05T13:38:15.987Z,5.75
2022-11-05T13:44:53.369Z,7.68
2022-11-05T13:50:54.802Z,8.43
2022-11-05T13:57:22.122Z,6.50
2022-11-05T14:03:23.597Z,5.57
2022-11-05T14:09:27.366Z,4.78
2022-11-05T14:15:29.785Z,4.65
2022-11-05T14:21:46.248Z,5.00
2022-11-05T14:27:49.183Z,9.00
2022-11-05T14:34:01.161Z,4.67
2022-11-05T14:40:21.098Z,8.10
2022-11-05T14:46:22.601Z,7.40
2022-11-05T14:52:24.076Z,5.63
2022-11-05T14:58:31.202Z,6.82
2022-11-05T15:04:45.289Z,5.37
2022-11-05T15:10:47.958Z,7.88
2022-11-05T15:16:52.605Z,5.57
2022-11-05T15:22:58.677Z,9.87
2022-11-05T15:29:01.393Z,8.80
2022-11-05T15:35:03.001Z,7.10
2022-11-05T15:41:05.986Z,9.25
2022-11-05T15:47:15.448Z,7.88
2022-11-05T15:54:02.249Z,9.20
2022-11-05T15:59:58.895Z,10.35
2022-11-05T16:06:00.827Z,11.00
2022-11-05T16:12:14.237Z,7.80
2022-11-05T16:18:22.198Z,8.18
2022-11-05T16:24:29.044Z,12.03
2022-11-05T16:30:30.919Z,13.95
2022-11-05T16:36:32.670Z,14.20
2022-11-05T16:42:34.152Z,10.32
2022-11-05T16:48:35.669Z,16.42
2022-11-05T16:54:37.322Z,15.33
2022-11-05T17:00:39.177Z,13.98
2022-11-05T17:06:40.850Z,21.37
2022-11-05T17:12:42.769Z,20.88
2022-11-05T17:18:44.556Z,14.35
2022-11-05T17:24:46.855Z,21.23
2022-11-05T17:30:54.478Z,18.85
2022-11-05T17:36:56.007Z,18.77
2022-11-05T17:42:57.610Z,23.05
2022-11-05T17:48:59.240Z,24.73
2022-11-05T17:55:00.929Z,23.80
2022-11-05T18:01:02.580Z,28.45
2022-11-05T18:07:04.320Z,22.53
2022-11-05T18:13:06.342Z,28.52
2022-11-05T18:19:07.816Z,21.17
2022-11-05T18:25:09.930Z,23.20
2022-11-05T18:31:18.337Z,20.05
2022-11-05T18:37:20.135Z,24.07
2022-11-05T18:43:21.792Z,19.52
2022-11-05T18:49:23.346Z,19.67
2022-11-05T18:55:24.903Z,20.10
2022-11-05T19:01:27.534Z,21.77
2022-11-05T19:07:29.260Z,22.63
2022-11-05T19:13:30.810Z,20.45
2022-11-05T19:19:32.295Z,18.92
2022-11-05T19:25:34.069Z,15.63
2022-11-05T19:31:35.588Z,14.85
2022-11-05T19:37:37.055Z,17.93
2022-11-05T19:43:38.987Z,12.40
2022-11-05T19:49:40.573Z,14.77
2022-11-05T19:55:44.916Z,16.37
2022-11-05T20:01:46.613Z,19.35
2022-11-05T20:07:52.843Z,20.50
2022-11-05T20:13:54.780Z,17.30
2022-11-05T20:19:56.257Z,20.33
2022-11-05T20:25:58.593Z,18.97
2022-11-05T20:32:01.885Z,17.48
2022-11-05T20:38:03.378Z,17.53
2022-11-05T20:44:05.062Z,14.18
2022-11-05T20:50:07.077Z,16.42
2022-11-05T20:56:09.324Z,17.13
2022-11-05T21:02:11.306Z,14.90
2022-11-05T21:08:13.523Z,16.30
2022-11-05T21:14:15.388Z,15.88
2022-11-05T21:20:17.141Z,17.42
2022-11-05T21:26:18.726Z,15.80
2022-11-05T21:32:20.310Z,14.35
2022-11-05T21:38:21.873Z,15.77
2022-11-05T21:44:23.508Z,18.27
2022-11-05T21:50:45.139Z,17.23
2022-11-05T21:57:10.942Z,15.47
2022-11-05T22:03:12.670Z,16.08
2022-11-05T22:09:14.130Z,14.43
2022-11-05T22:15:15.702Z,15.80
2022-11-05T22:21:20.169Z,13.85
2022-11-05T22:27:22.291Z,13.80
2022-11-05T22:33:23.750Z,13.85
2022-11-05T22:39:25.502Z,13.33
2022-11-05T22:45:26.978Z,12.40
2022-11-05T22:51:29.993Z,11.70
2022-11-05T22:57:31.545Z,11.50
2022-11-05T23:03:33.178Z,11.30
2022-11-05T23:09:53.432Z,11.93
2022-11-05T23:16:13.757Z,12.13
2022-11-05T23:22:38.194Z,10.90
2022-11-05T23:28:39.641Z,13.73
2022-11-05T23:34:41.102Z,15.25
2022-11-05T23:41:02.541Z,11.60
2022-11-05T23:47:22.882Z,13.05
2022-11-05T23:53:24.335Z,11.70
2022-11-05T23:59:25.789Z,12.00
